Time;durP1;ratioP1;P1;durP2;ratioP2;P2;SDS_P1;SDS_P2;PMS_P1;PMS_P2;Temp;Humidity;BMP_temperature;BMP_pressure;BME280_temperature;BME280_humidity;BME280_pressure;Samples;Min_cycle;Max_cycle;Signal;HPM_P1;HPM_P2
2021/12/31 00:01:12;;;;;;;14.00;3.50;;;13.20;99.90;;;;;;5075474;28;20615;-47
2021/12/31 00:03:39;;;;;;;4.40;3.10;;;13.30;99.90;;;;;;5075810;28;20497;-52
2021/12/31 00:06:07;;;;;;;4.87;3.30;;;13.20;99.90;;;;;;5075874;28;20443;-49
2021/12/31 00:08:33;;;;;;;3.93;3.23;;;13.20;99.90;;;;;;5076271;28;20518;-50
2021/12/31 00:11:01;;;;;;;3.87;3.03;;;13.20;99.90;;;;;;5076262;28;20490;-48
2021/12/31 00:13:28;;;;;;;4.87;3.37;;;13.20;99.90;;;;;;5076297;28;20491;-48
2021/12/31 00:15:55;;;;;;;6.23;2.77;;;13.20;99.90;;;;;;5076043;28;20440;-50
2021/12/31 00:18:22;;;;;;;3.13;2.20;;;13.20;99.90;;;;;;5076516;28;20482;-46
2021/12/31 00:20:49;;;;;;;4.57;3.00;;;13.20;99.90;;;;;;5069042;28;20478;-46
2021/12/31 00:23:20;;;;;;;4.77;3.03;;;13.20;99.90;;;;;;5066105;28;20477;-45
2021/12/31 00:25:50;;;;;;;3.40;2.87;;;13.20;99.90;;;;;;5079187;28;20457;-45
2021/12/31 00:28:16;;;;;;;5.30;3.80;;;13.20;99.90;;;;;;5082314;28;20428;-43
2021/12/31 00:30:43;;;;;;;3.60;2.83;;;13.20;99.90;;;;;;5082408;28;20428;-42
2021/12/31 00:33:10;;;;;;;4.60;3.80;;;13.20;99.90;;;;;;5082334;28;20446;-39
2021/12/31 00:35:38;;;;;;;5.23;3.40;;;13.20;99.90;;;;;;5082412;28;20412;-41
2021/12/31 00:38:06;;;;;;;7.27;5.03;;;13.20;99.90;;;;;;5082335;28;20404;-44
2021/12/31 00:40:34;;;;;;;6.10;3.83;;;13.20;99.90;;;;;;5082314;28;20446;-41
2021/12/31 00:43:01;;;;;;;11.23;4.70;;;13.20;99.90;;;;;;5082125;28;20516;-44
2021/12/31 00:45:28;;;;;;;7.27;4.37;;;13.20;99.90;;;;;;5082224;28;20415;-40
2021/12/31 00:47:56;;;;;;;9.00;4.20;;;13.20;99.90;;;;;;5082139;28;20436;-43
2021/12/31 00:50:23;;;;;;;4.70;3.47;;;13.20;99.90;;;;;;5082177;28;20435;-38
2021/12/31 00:52:52;;;;;;;8.57;4.40;;;13.30;99.90;;;;;;5082021;28;20450;-42
2021/12/31 00:55:18;;;;;;;5.13;3.30;;;13.30;99.90;;;;;;5082047;28;20408;-43
2021/12/31 00:57:48;;;;;;;5.00;4.13;;;13.30;99.90;;;;;;5082026;28;20424;-41
2021/12/31 07:02:24;;;;;;;2.90;2.60;;;13.80;99.90;;;;;;4970488;28;20487;-47
2021/12/31 07:04:51;;;;;;;3.03;2.73;;;14.20;99.90;;;;;;4971907;29;20480;-46
2021/12/31 07:07:17;;;;;;;5.63;3.30;;;14.20;99.90;;;;;;4972058;29;20820;-48
2021/12/31 07:09:44;;;;;;;3.63;2.80;;;14.30;99.90;;;;;;4972315;29;20501;-48
2021/12/31 07:12:11;;;;;;;2.80;2.30;;;14.50;99.90;;;;;;4972295;29;20503;-48
2021/12/31 07:14:37;;;;;;;3.83;2.70;;;14.60;99.90;;;;;;4970806;29;20468;-46
2021/12/31 07:17:04;;;;;;;3.77;2.97;;;14.70;99.90;;;;;;4970353;28;20484;-49
2021/12/31 07:19:32;;;;;;;2.57;2.13;;;14.60;99.90;;;;;;4969830;29;20853;-47
2021/12/31 07:22:00;;;;;;;3.03;2.83;;;14.50;99.90;;;;;;4970611;28;20444;-46
2021/12/31 07:24:27;;;;;;;2.70;2.50;;;14.60;99.90;;;;;;4970980;29;20848;-46
2021/12/31 07:26:54;;;;;;;2.53;2.30;;;14.60;99.90;;;;;;4970092;29;21015;-46
2021/12/31 07:29:20;;;;;;;2.67;2.47;;;14.60;99.90;;;;;;4969926;28;20453;-48
2021/12/31 07:31:47;;;;;;;3.97;2.57;;;14.80;99.90;;;;;;4970200;29;20524;-48
2021/12/31 07:34:13;;;;;;;3.30;2.47;;;14.80;99.90;;;;;;4969688;29;20468;-48
2021/12/31 07:36:42;;;;;;;3.70;2.67;;;14.90;99.90;;;;;;4969320;29;20512;-48
2021/12/31 07:39:10;;;;;;;2.50;2.30;;;14.90;99.90;;;;;;4970061;29;20500;-46
2021/12/31 07:41:36;;;;;;;3.73;2.20;;;15.00;99.90;;;;;;4970499;29;20800;-49
2021/12/31 07:44:03;;;;;;;4.43;2.30;;;14.90;99.90;;;;;;4971745;28;20493;-46
2021/12/31 07:46:30;;;;;;;3.57;2.37;;;14.90;99.90;;;;;;4972096;29;20433;-44
2021/12/31 07:48:56;;;;;;;3.97;2.90;;;14.80;99.90;;;;;;4971613;29;20468;-45
2021/12/31 07:51:23;;;;;;;2.90;2.60;;;14.60;99.90;;;;;;4973861;28;20432;-46
2021/12/31 07:53:51;;;;;;;2.03;1.80;;;14.40;99.90;;;;;;4971679;29;20448;-47
2021/12/31 07:56:19;;;;;;;2.40;2.10;;;14.30;99.90;;;;;;4970987;29;20433;-47
2021/12/31 07:58:46;;;;;;;3.03;2.73;;;14.30;99.90;;;;;;4970818;28;20468;-46
2021/12/31 08:01:14;;;;;;;2.67;2.43;;;14.20;99.90;;;;;;4969648;29;20453;-46
2021/12/31 08:03:40;;;;;;;2.60;2.40;;;14.20;99.90;;;;;;4969257;29;20544;-44
2021/12/31 08:06:10;;;;;;;5.53;2.40;;;14.10;99.90;;;;;;4969230;29;20433;-47
2021/12/31 08:08:36;;;;;;;2.93;2.63;;;14.10;99.90;;;;;;4968979;28;20454;-42
2021/12/31 08:11:05;;;;;;;4.90;2.80;;;14.00;99.90;;;;;;4970299;29;20445;-45
2021/12/31 08:13:32;;;;;;;3.20;2.10;;;14.00;99.90;;;;;;4971684;29;20452;-43
2021/12/31 08:15:59;;;;;;;2.80;2.50;;;14.10;99.90;;;;;;4970683;29;20488;-44
2021/12/31 08:18:25;;;;;;;2.23;2.03;;;14.00;99.90;;;;;;4969178;28;20456;-44
2021/12/31 08:20:52;;;;;;;5.30;2.63;;;14.00;99.90;;;;;;4968331;29;20451;-45
2021/12/31 08:23:19;;;;;;;4.70;3.17;;;14.00;99.90;;;;;;4967970;29;20519;-43
2021/12/31 08:25:46;;;;;;;4.23;3.03;;;14.00;99.90;;;;;;4968829;29;20476;-44
2021/12/31 08:28:14;;;;;;;3.23;2.80;;;14.00;99.90;;;;;;4968507;29;20456;-47
2021/12/31 08:30:41;;;;;;;2.73;2.53;;;14.00;99.90;;;;;;4969511;29;20480;-43
2021/12/31 08:33:08;;;;;;;3.13;2.80;;;14.00;99.90;;;;;;4968412;29;20933;-46
2021/12/31 08:35:34;;;;;;;3.07;2.77;;;13.90;99.90;;;;;;4970415;28;20511;-46
2021/12/31 08:38:02;;;;;;;3.83;2.57;;;14.00;99.90;;;;;;4971527;29;20870;-46
2021/12/31 08:40:28;;;;;;;2.60;2.30;;;13.90;99.90;;;;;;4969762;28;20459;-48
2021/12/31 08:42:55;;;;;;;3.43;1.67;;;14.00;99.90;;;;;;4972118;28;20484;-50
2021/12/31 08:45:25;;;;;;;2.40;1.97;;;14.00;99.90;;;;;;4972053;29;20484;-45
2021/12/31 08:47:52;;;;;;;5.67;2.80;;;14.10;99.90;;;;;;4971444;29;20460;-44
2021/12/31 08:50:19;;;;;;;3.73;2.27;;;14.10;99.90;;;;;;4972372;28;20511;-45
2021/12/31 08:52:46;;;;;;;3.07;2.43;;;14.10;99.90;;;;;;4971533;28;20448;-47
2021/12/31 08:55:14;;;;;;;3.00;2.33;;;14.20;99.90;;;;;;4971975;29;20468;-43
2021/12/31 08:57:42;;;;;;;2.77;2.40;;;14.10;99.90;;;;;;4971842;29;20510;-45
2021/12/31 09:00:10;;;;;;;2.73;2.30;;;14.20;99.90;;;;;;4971713;29;20507;-44
2021/12/31 09:02:39;;;;;;;3.00;2.03;;;14.20;99.90;;;;;;4971629;28;20477;-46
2021/12/31 09:05:07;;;;;;;3.37;2.40;;;14.20;99.90;;;;;;4972194;29;20515;-43
2021/12/31 09:07:34;;;;;;;2.80;1.93;;;14.10;99.90;;;;;;4972283;29;20483;-48
2021/12/31 09:10:01;;;;;;;2.60;1.77;;;14.10;99.90;;;;;;4974256;29;20487;-49
2021/12/31 09:12:28;;;;;;;1.70;1.60;;;14.10;99.90;;;;;;4973425;29;20478;-45
2021/12/31 09:14:54;;;;;;;4.20;2.00;;;14.10;99.90;;;;;;4971957;29;20476;-48
2021/12/31 09:17:22;;;;;;;2.00;1.67;;;14.10;99.90;;;;;;4973903;29;20448;-44
2021/12/31 09:19:50;;;;;;;3.77;1.70;;;14.20;99.90;;;;;;4973101;29;20472;-45
2021/12/31 09:22:17;;;;;;;2.60;1.80;;;14.10;99.90;;;;;;4972147;28;20440;-43
2021/12/31 09:24:43;;;;;;;1.57;1.47;;;14.10;99.90;;;;;;4971325;28;20488;-44
2021/12/31 09:27:10;;;;;;;2.20;1.90;;;14.10;99.90;;;;;;4971639;29;20826;-47
2021/12/31 09:29:37;;;;;;;5.70;2.07;;;14.20;99.90;;;;;;4971338;29;20452;-47
2021/12/31 09:32:04;;;;;;;5.50;1.70;;;14.10;99.90;;;;;;4972290;29;20477;-47
2021/12/31 09:34:31;;;;;;;1.63;1.50;;;14.10;99.90;;;;;;4973908;28;20452;-44
2021/12/31 09:36:59;;;;;;;1.60;1.47;;;14.10;99.90;;;;;;4972360;29;20452;-45
2021/12/31 09:39:26;;;;;;;1.60;1.50;;;14.10;99.90;;;;;;4970851;29;20460;-45
2021/12/31 09:41:52;;;;;;;1.97;1.70;;;14.20;99.90;;;;;;4971529;29;20664;-45
2021/12/31 09:44:20;;;;;;;4.80;1.57;;;14.20;99.90;;;;;;4971866;29;20515;-46
2021/12/31 09:46:47;;;;;;;2.60;1.93;;;14.20;99.90;;;;;;4970991;28;20780;-43
2021/12/31 09:49:14;;;;;;;3.23;1.77;;;14.20;99.90;;;;;;4971323;29;20448;-44
2021/12/31 09:51:43;;;;;;;1.53;1.40;;;14.20;99.90;;;;;;4973108;28;20630;-45
2021/12/31 09:54:11;;;;;;;1.53;1.43;;;14.20;99.90;;;;;;4971876;29;20440;-49
2021/12/31 09:56:40;;;;;;;1.73;1.63;;;14.20;99.90;;;;;;4971638;29;20492;-49
2021/12/31 09:59:07;;;;;;;2.07;1.87;;;14.30;99.90;;;;;;4970704;29;20452;-47
2021/12/31 10:01:44;;;;;;;2.63;2.00;;;14.30;99.90;;;;;;4969688;29;20514;-43
2021/12/31 10:04:10;;;;;;;3.07;2.20;;;14.30;99.90;;;;;;4969545;29;20472;-45
2021/12/31 10:06:37;;;;;;;2.50;1.50;;;14.30;99.90;;;;;;4969769;29;20444;-46
2021/12/31 10:09:07;;;;;;;2.47;1.87;;;14.40;99.90;;;;;;4969245;29;20929;-44
2021/12/31 10:11:35;;;;;;;4.77;2.10;;;14.30;99.90;;;;;;4968686;29;20472;-45
2021/12/31 10:14:05;;;;;;;3.40;2.23;;;14.30;99.90;;;;;;4968555;29;20469;-46
2021/12/31 10:16:33;;;;;;;1.83;1.40;;;14.30;99.90;;;;;;4969356;29;20504;-47
2021/12/31 10:19:08;;;;;;;2.33;1.60;;;14.30;99.90;;;;;;4968868;29;20513;-45
2021/12/31 10:21:41;;;;;;;2.03;1.53;;;14.30;99.90;;;;;;4969208;29;20556;-45
2021/12/31 10:24:33;;;;;;;1.40;1.23;;;14.20;99.90;;;;;;4969651;29;20464;-45
2021/12/31 10:27:04;;;;;;;1.87;1.60;;;14.10;99.90;;;;;;4969526;29;20480;-45
2021/12/31 10:29:31;;;;;;;2.27;2.07;;;14.10;99.90;;;;;;4969278;29;20445;-46
2021/12/31 10:31:58;;;;;;;3.40;1.80;;;14.10;99.90;;;;;;4968664;29;20828;-48
2021/12/31 10:34:27;;;;;;;2.07;1.80;;;14.10;99.90;;;;;;4969438;29;20445;-45
2021/12/31 10:36:54;;;;;;;3.17;2.27;;;14.00;99.90;;;;;;4969264;29;20472;-48
2021/12/31 10:39:24;;;;;;;7.70;1.90;;;14.00;99.90;;;;;;4969857;29;20447;-44
2021/12/31 10:41:52;;;;;;;1.80;1.60;;;14.00;99.90;;;;;;4969344;28;20516;-44
2021/12/31 10:44:21;;;;;;;2.17;1.70;;;14.00;99.90;;;;;;4969773;29;20506;-43
2021/12/31 10:47:08;;;;;;;1.30;1.20;;;14.00;99.90;;;;;;4969092;29;20472;-42
2021/12/31 10:49:57;;;;;;;3.13;1.70;;;14.10;99.90;;;;;;4968835;29;20464;-44
2021/12/31 10:52:25;;;;;;;2.90;1.40;;;14.10;99.90;;;;;;4968574;29;20452;-48
2021/12/31 10:55:02;;;;;;;1.60;1.20;;;14.10;99.90;;;;;;4968913;29;20492;-46
2021/12/31 10:57:35;;;;;;;2.70;1.60;;;14.10;99.90;;;;;;4968965;29;20917;-44
2021/12/31 11:00:05;;;;;;;2.67;2.20;;;14.10;99.90;;;;;;4969537;28;20456;-47
2021/12/31 11:02:33;;;;;;;2.03;1.40;;;14.10;99.90;;;;;;4969240;29;20468;-46
2021/12/31 11:05:00;;;;;;;2.20;1.57;;;14.10;99.90;;;;;;4968724;28;20488;-47
2021/12/31 11:07:27;;;;;;;1.50;1.33;;;14.10;99.90;;;;;;4968710;28;20452;-45
2021/12/31 11:09:55;;;;;;;1.20;1.10;;;14.10;99.90;;;;;;4968402;29;20961;-45
2021/12/31 11:12:22;;;;;;;2.70;1.93;;;14.10;99.90;;;;;;4968856;29;20469;-45
2021/12/31 11:14:49;;;;;;;1.50;1.40;;;14.10;99.90;;;;;;4968527;29;20919;-45
2021/12/31 11:17:17;;;;;;;2.47;1.40;;;14.10;99.90;;;;;;4968682;29;20477;-45
2021/12/31 11:19:45;;;;;;;1.97;1.83;;;14.00;99.90;;;;;;4968859;28;20483;-44
2021/12/31 11:22:13;;;;;;;1.70;1.30;;;14.00;99.90;;;;;;4968811;29;20922;-44
2021/12/31 11:24:40;;;;;;;2.50;2.30;;;14.10;99.90;;;;;;4969094;29;20511;-45
2021/12/31 11:27:29;;;;;;;1.47;1.30;;;14.10;99.90;;;;;;4968904;29;20436;-49
2021/12/31 11:29:57;;;;;;;2.70;1.20;;;14.10;99.90;;;;;;4968292;28;21055;-45
2021/12/31 11:32:56;;;;;;;1.33;1.10;;;14.20;99.90;;;;;;4968014;29;20496;-44
2021/12/31 11:35:38;;;;;;;7.23;2.57;;;14.20;99.90;;;;;;4968386;28;20437;-45
2021/12/31 11:38:06;;;;;;;1.50;1.20;;;14.20;99.90;;;;;;4968505;29;20468;-46
2021/12/31 11:40:35;;;;;;;2.60;1.53;;;14.20;99.90;;;;;;4967509;29;20451;-49
2021/12/31 11:43:19;;;;;;;1.37;1.27;;;14.20;99.90;;;;;;4967958;29;20491;-44
2021/12/31 11:46:24;;;;;;;4.97;2.07;;;14.20;99.90;;;;;;4967186;29;20429;-48
2021/12/31 11:48:56;;;;;;;3.40;2.53;;;14.20;99.90;;;;;;4968067;29;20448;-48
2021/12/31 11:51:27;;;;;;;2.60;1.80;;;14.20;99.90;;;;;;4967607;29;20476;-45
2021/12/31 11:54:15;;;;;;;2.80;1.93;;;14.10;99.90;;;;;;4968130;29;20441;-47
2021/12/31 11:56:57;;;;;;;1.87;1.10;;;14.10;99.90;;;;;;4970043;28;20969;-52
2021/12/31 11:59:52;;;;;;;1.40;1.30;;;14.10;99.90;;;;;;4970710;29;20465;-49
2021/12/31 12:02:33;;;;;;;1.83;0.90;;;14.10;99.90;;;;;;4969365;29;20492;-45
2021/12/31 12:05:14;;;;;;;2.60;1.33;;;14.10;99.90;;;;;;4967106;29;20513;-48
2021/12/31 12:07:46;;;;;;;1.60;1.10;;;14.10;99.90;;;;;;4968052;29;20436;-48
2021/12/31 12:10:21;;;;;;;1.60;1.00;;;14.10;99.90;;;;;;4967828;29;20499;-45
2021/12/31 12:12:51;;;;;;;1.90;1.43;;;14.10;99.90;;;;;;4968143;29;20447;-45
2021/12/31 12:15:34;;;;;;;1.27;1.17;;;14.10;99.90;;;;;;4967266;29;20936;-48
2021/12/31 12:18:06;;;;;;;3.90;1.50;;;14.20;99.90;;;;;;4974064;29;20413;-43
2021/12/31 12:20:45;;;;;;;1.80;1.50;;;14.20;99.90;;;;;;4977355;28;20466;-43
2021/12/31 12:23:20;;;;;;;1.73;1.23;;;14.20;99.90;;;;;;4977771;29;20451;-45
2021/12/31 12:25:47;;;;;;;5.93;1.33;;;14.30;99.90;;;;;;4978151;29;20468;-57
2021/12/31 12:28:15;;;;;;;1.50;1.03;;;14.20;99.90;;;;;;4977599;29;20476;-53
2021/12/31 12:30:50;;;;;;;2.23;1.70;;;14.30;99.90;;;;;;4977813;29;20457;-44
2021/12/31 12:33:22;;;;;;;5.97;1.07;;;14.30;99.90;;;;;;4977271;29;20423;-48
2021/12/31 12:35:52;;;;;;;2.23;1.57;;;14.30;99.90;;;;;;4977512;29;20421;-47
2021/12/31 12:38:21;;;;;;;1.80;1.43;;;14.30;99.90;;;;;;4977375;29;20486;-43
2021/12/31 12:40:51;;;;;;;1.77;1.20;;;14.30;99.90;;;;;;4977110;29;20480;-46
2021/12/31 12:43:20;;;;;;;1.83;1.43;;;14.30;99.90;;;;;;4977250;29;20433;-43
2021/12/31 12:45:49;;;;;;;1.53;1.23;;;14.30;99.90;;;;;;4977393;29;20456;-42
2021/12/31 12:48:17;;;;;;;1.53;1.13;;;14.30;99.90;;;;;;4977388;28;20477;-43
2021/12/31 12:50:51;;;;;;;2.33;1.43;;;14.40;99.90;;;;;;4977535;28;20478;-44
2021/12/31 12:53:23;;;;;;;1.50;1.10;;;14.40;99.90;;;;;;4977501;29;20455;-44
2021/12/31 12:55:50;;;;;;;1.10;1.00;;;14.50;99.90;;;;;;4977446;28;20507;-44
2021/12/31 12:58:24;;;;;;;2.30;1.10;;;14.50;99.90;;;;;;4977643;29;20474;-50
2021/12/31 13:00:55;;;;;;;1.50;1.00;;;14.50;99.90;;;;;;4977268;29;20466;-48
2021/12/31 13:03:24;;;;;;;1.47;1.20;;;14.50;99.90;;;;;;4977227;29;20427;-54
2021/12/31 13:06:02;;;;;;;1.63;1.53;;;14.50;99.90;;;;;;4977436;29;20477;-48
2021/12/31 13:08:28;;;;;;;1.60;1.47;;;14.50;99.90;;;;;;4977423;28;20456;-46
2021/12/31 13:10:55;;;;;;;2.80;1.80;;;14.60;99.90;;;;;;4977407;29;20440;-46
2021/12/31 13:13:22;;;;;;;3.47;2.07;;;14.60;99.90;;;;;;4977172;29;20441;-45
2021/12/31 13:15:49;;;;;;;2.40;1.87;;;14.50;99.90;;;;;;4977217;29;20469;-46
2021/12/31 13:18:24;;;;;;;2.53;1.60;;;14.50;99.90;;;;;;4977727;28;20467;-49
2021/12/31 13:20:59;;;;;;;4.57;2.30;;;14.50;99.90;;;;;;4977591;29;20424;-54
2021/12/31 13:23:26;;;;;;;2.50;1.80;;;14.50;99.90;;;;;;4977272;29;20457;-46
2021/12/31 13:25:53;;;;;;;2.17;1.50;;;14.50;99.90;;;;;;4976977;29;20499;-48
2021/12/31 13:28:22;;;;;;;5.23;1.10;;;14.50;99.90;;;;;;4980070;28;20455;-46
2021/12/31 13:30:51;;;;;;;2.80;1.60;;;14.50;99.90;;;;;;4980846;28;20450;-47
2021/12/31 13:33:25;;;;;;;1.60;1.50;;;14.50;99.90;;;;;;4980784;29;20476;-45
2021/12/31 13:36:13;;;;;;;3.20;2.20;;;14.50;99.90;;;;;;4980310;28;20421;-45
2021/12/31 13:39:00;;;;;;;4.97;2.80;;;14.50;99.90;;;;;;4980681;29;20462;-43
2021/12/31 13:41:28;;;;;;;1.20;1.10;;;14.50;99.90;;;;;;4980359;29;20450;-48
2021/12/31 13:43:55;;;;;;;2.63;1.50;;;14.50;99.90;;;;;;4980346;29;20421;-45
2021/12/31 13:46:28;;;;;;;1.83;1.13;;;14.50;99.90;;;;;;4980385;29;20446;-49
2021/12/31 13:49:02;;;;;;;1.60;1.13;;;14.50;99.90;;;;;;4980812;28;20480;-48
2021/12/31 13:51:31;;;;;;;3.53;1.20;;;14.50;99.90;;;;;;4980418;29;20434;-42
2021/12/31 13:53:58;;;;;;;3.97;1.73;;;14.50;99.90;;;;;;4980477;28;20490;-48
2021/12/31 13:56:36;;;;;;;5.80;1.73;;;14.50;99.90;;;;;;4980440;28;20441;-57
2021/12/31 13:59:24;;;;;;;1.90;1.33;;;14.50;99.90;;;;;;4980840;29;20433;-45
2021/12/31 14:02:09;;;;;;;4.13;2.10;;;14.50;99.90;;;;;;4980503;28;20481;-47
2021/12/31 14:04:52;;;;;;;1.77;1.27;;;14.40;99.90;;;;;;4979999;29;20493;-43
2021/12/31 14:07:28;;;;;;;1.77;1.23;;;14.40;99.90;;;;;;4979819;29;20460;-44
2021/12/31 14:09:58;;;;;;;1.30;1.20;;;14.40;99.90;;;;;;4980229;29;20414;-53
2021/12/31 14:12:25;;;;;;;2.40;1.57;;;14.40;99.90;;;;;;4980160;29;20545;-51
2021/12/31 14:14:52;;;;;;;1.77;1.33;;;14.40;99.90;;;;;;4979836;29;20483;-52
2021/12/31 14:17:19;;;;;;;1.60;1.50;;;14.50;99.90;;;;;;4980334;29;20500;-52
2021/12/31 14:19:46;;;;;;;2.87;1.10;;;14.50;99.90;;;;;;4980264;29;20465;-50
2021/12/31 14:22:13;;;;;;;2.47;1.43;;;14.50;99.90;;;;;;4980171;29;20473;-46
2021/12/31 14:24:41;;;;;;;1.23;1.13;;;14.50;99.90;;;;;;4979936;29;20468;-47
2021/12/31 14:27:08;;;;;;;1.80;1.07;;;14.50;99.90;;;;;;4979596;29;20572;-46
2021/12/31 14:29:35;;;;;;;1.27;1.17;;;14.50;99.90;;;;;;4979400;29;20444;-44
2021/12/31 14:32:03;;;;;;;1.60;1.13;;;14.50;99.90;;;;;;4979031;29;20453;-45
2021/12/31 14:34:32;;;;;;;1.93;1.10;;;14.50;99.90;;;;;;4980068;29;20424;-46
2021/12/31 14:37:04;;;;;;;1.67;1.33;;;14.50;99.90;;;;;;4979258;29;20439;-45
2021/12/31 14:39:36;;;;;;;1.30;1.20;;;14.50;99.90;;;;;;4978442;28;20429;-44
2021/12/31 14:42:05;;;;;;;2.47;1.30;;;14.50;99.90;;;;;;4979611;29;20508;-48
2021/12/31 14:44:34;;;;;;;1.30;1.20;;;14.50;99.90;;;;;;4979463;29;20476;-48
2021/12/31 14:47:02;;;;;;;1.77;1.50;;;14.50;99.90;;;;;;4979029;29;20477;-46
2021/12/31 14:49:35;;;;;;;2.13;1.10;;;14.50;99.90;;;;;;4979277;29;20514;-45
2021/12/31 14:52:01;;;;;;;2.50;1.47;;;14.50;99.90;;;;;;4979377;29;20473;-44
2021/12/31 14:54:29;;;;;;;1.87;1.30;;;14.50;99.90;;;;;;4978971;28;20432;-46
2021/12/31 14:56:56;;;;;;;3.33;1.73;;;14.50;99.90;;;;;;4978991;29;20441;-42
2021/12/31 14:59:24;;;;;;;1.77;1.33;;;14.50;99.90;;;;;;4979083;29;20450;-42
2021/12/31 15:01:51;;;;;;;7.13;1.80;;;14.40;99.90;;;;;;4978837;29;20452;-49
2021/12/31 15:04:18;;;;;;;3.30;1.67;;;14.40;99.90;;;;;;4979474;29;20437;-51
2021/12/31 15:06:44;;;;;;;6.97;2.20;;;14.40;99.90;;;;;;4979056;29;20522;-52
2021/12/31 15:09:11;;;;;;;2.13;1.30;;;14.40;99.90;;;;;;4979362;28;20485;-44
2021/12/31 15:11:39;;;;;;;5.93;1.60;;;14.40;99.90;;;;;;4978753;29;20478;-44
2021/12/31 15:14:06;;;;;;;1.93;1.50;;;14.40;99.90;;;;;;4978401;29;20452;-46
2021/12/31 15:16:34;;;;;;;2.23;1.30;;;14.40;99.90;;;;;;4978808;29;20468;-45
2021/12/31 15:19:01;;;;;;;1.83;1.20;;;14.40;99.90;;;;;;4978802;29;20538;-48
2021/12/31 15:21:29;;;;;;;1.60;1.27;;;14.40;99.90;;;;;;4978954;29;20469;-44
2021/12/31 15:23:56;;;;;;;1.33;1.03;;;14.40;99.90;;;;;;4979055;28;20475;-44
2021/12/31 15:26:24;;;;;;;2.30;2.10;;;14.40;99.90;;;;;;4978392;29;20515;-44
2021/12/31 15:28:51;;;;;;;7.33;4.23;;;14.50;99.90;;;;;;4978703;29;20461;-46
2021/12/31 15:31:18;;;;;;;3.90;2.33;;;14.50;99.90;;;;;;4978611;29;20426;-46
2021/12/31 15:33:47;;;;;;;2.37;1.70;;;14.50;99.90;;;;;;4978391;28;20480;-50
2021/12/31 15:36:14;;;;;;;1.83;1.30;;;14.50;99.90;;;;;;4978324;29;20444;-46
2021/12/31 15:38:41;;;;;;;2.63;1.70;;;14.50;99.90;;;;;;4978466;29;20500;-44
2021/12/31 15:41:09;;;;;;;1.70;1.40;;;14.50;99.90;;;;;;4978129;29;20443;-48
2021/12/31 15:43:37;;;;;;;2.37;2.07;;;14.50;99.90;;;;;;4978292;29;20462;-56
2021/12/31 15:46:04;;;;;;;1.30;1.20;;;14.50;99.90;;;;;;4978411;28;20519;-49
2021/12/31 15:48:31;;;;;;;6.27;1.83;;;14.40;99.90;;;;;;4978607;29;20775;-47
2021/12/31 15:50:59;;;;;;;1.77;1.27;;;14.40;99.90;;;;;;4977631;28;20435;-64
2021/12/31 15:53:26;;;;;;;2.20;1.57;;;14.40;99.90;;;;;;4978031;29;20507;-63
2021/12/31 15:55:53;;;;;;;1.70;1.50;;;14.30;99.90;;;;;;4978209;29;20471;-55
2021/12/31 15:58:19;;;;;;;5.73;2.03;;;14.30;99.90;;;;;;4977359;29;20474;-48
2021/12/31 16:00:46;;;;;;;2.10;1.60;;;14.30;99.90;;;;;;4977501;29;20441;-50
2021/12/31 16:03:13;;;;;;;4.57;2.80;;;14.30;99.90;;;;;;4978083;29;20529;-48
2021/12/31 16:05:40;;;;;;;7.87;3.77;;;14.30;99.90;;;;;;4978103;28;20487;-49
2021/12/31 16:08:08;;;;;;;5.20;2.20;;;14.20;99.90;;;;;;4977714;28;20472;-46
2021/12/31 16:10:34;;;;;;;3.00;1.37;;;14.10;99.90;;;;;;4977803;29;20455;-48
2021/12/31 16:13:01;;;;;;;1.30;1.20;;;14.10;99.90;;;;;;4978287;28;20460;-44
2021/12/31 16:15:28;;;;;;;2.73;1.70;;;14.00;99.90;;;;;;4978130;29;20432;-50
2021/12/31 16:18:01;;;;;;;2.63;2.00;;;14.00;99.90;;;;;;4977739;28;20461;-46
2021/12/31 16:20:28;;;;;;;2.40;2.17;;;14.00;99.90;;;;;;4978098;29;20422;-42
2021/12/31 16:22:55;;;;;;;2.07;1.77;;;14.00;99.90;;;;;;4978018;29;20476;-46
2021/12/31 16:25:23;;;;;;;4.33;2.87;;;13.90;99.90;;;;;;4977991;29;20468;-45
2021/12/31 16:27:50;;;;;;;4.57;3.13;;;13.80;99.90;;;;;;4978122;28;20432;-45
2021/12/31 16:30:18;;;;;;;3.27;1.97;;;13.80;99.90;;;;;;4978162;29;20433;-45
2021/12/31 16:32:45;;;;;;;5.20;2.10;;;13.80;99.90;;;;;;4977624;29;20482;-48
2021/12/31 16:35:13;;;;;;;5.63;2.83;;;13.80;99.90;;;;;;4977614;29;20417;-49
2021/12/31 16:37:40;;;;;;;9.23;5.23;;;13.70;99.90;;;;;;4977625;29;20448;-49
2021/12/31 16:40:11;;;;;;;5.33;2.77;;;13.70;99.90;;;;;;4977933;29;20432;-44
2021/12/31 16:42:39;;;;;;;5.83;3.00;;;13.70;99.90;;;;;;4977955;29;20440;-48
2021/12/31 16:45:07;;;;;;;6.53;2.83;;;13.70;99.90;;;;;;4977664;28;20472;-48
2021/12/31 16:47:34;;;;;;;4.67;2.40;;;13.60;99.90;;;;;;4977573;28;20456;-47
2021/12/31 16:50:01;;;;;;;3.50;2.13;;;13.60;99.90;;;;;;4977850;29;20448;-48
2021/12/31 16:52:27;;;;;;;1.90;1.73;;;13.50;99.90;;;;;;4977883;29;20454;-49
2021/12/31 16:54:58;;;;;;;4.23;2.10;;;13.40;99.90;;;;;;4977436;29;20471;-45
2021/12/31 16:57:25;;;;;;;2.13;1.70;;;13.40;99.90;;;;;;4969926;29;20878;-50
2021/12/31 16:59:53;;;;;;;2.53;1.80;;;13.40;99.90;;;;;;4969058;29;20420;-49
2021/12/31 17:02:20;;;;;;;3.00;2.43;;;13.40;99.90;;;;;;4953258;29;20464;-46
2021/12/31 17:04:47;;;;;;;4.00;1.70;;;13.30;99.90;;;;;;4955801;29;20443;-45
2021/12/31 17:07:13;;;;;;;4.00;2.27;;;13.20;99.90;;;;;;4947995;29;20481;-47
2021/12/31 17:09:40;;;;;;;6.23;2.30;;;13.20;99.90;;;;;;4948024;29;20464;-49
2021/12/31 17:12:09;;;;;;;3.43;2.33;;;13.20;99.90;;;;;;4945314;29;20457;-48
2021/12/31 17:14:43;;;;;;;6.70;2.40;;;13.20;99.90;;;;;;4945639;29;20770;-49
2021/12/31 17:17:11;;;;;;;2.57;1.80;;;13.10;99.90;;;;;;4945274;29;20907;-48
2021/12/31 17:19:38;;;;;;;4.10;2.67;;;13.10;99.90;;;;;;4946457;29;20806;-47
2021/12/31 17:22:07;;;;;;;3.13;2.10;;;13.10;99.90;;;;;;4951951;29;20480;-47
2021/12/31 17:24:33;;;;;;;2.10;1.87;;;13.00;99.90;;;;;;4948262;29;20479;-46
2021/12/31 17:27:00;;;;;;;2.87;2.30;;;12.90;99.90;;;;;;4941205;29;20516;-47
2021/12/31 17:29:28;;;;;;;2.83;2.20;;;12.90;99.90;;;;;;4942104;29;20488;-49
2021/12/31 17:31:55;;;;;;;2.73;1.80;;;12.90;99.90;;;;;;4942049;29;20466;-53
2021/12/31 17:34:23;;;;;;;4.30;2.57;;;12.80;99.90;;;;;;4943043;29;20469;-53
2021/12/31 17:36:50;;;;;;;6.20;2.70;;;12.80;99.90;;;;;;4959014;29;20453;-61
2021/12/31 17:39:17;;;;;;;3.60;2.63;;;12.90;99.90;;;;;;4940953;29;20468;-49
2021/12/31 17:41:44;;;;;;;2.53;2.13;;;12.90;99.90;;;;;;4944472;29;20456;-45
2021/12/31 17:44:10;;;;;;;3.70;2.60;;;12.80;99.90;;;;;;4956641;29;20535;-44
2021/12/31 17:46:37;;;;;;;4.83;2.80;;;12.80;99.90;;;;;;4979447;28;20511;-47
2021/12/31 17:49:04;;;;;;;6.03;2.90;;;12.70;99.90;;;;;;4960811;29;20591;-48
2021/12/31 17:51:32;;;;;;;8.63;3.17;;;12.70;99.90;;;;;;4959563;29;20464;-46
2021/12/31 17:53:58;;;;;;;4.77;3.03;;;12.70;99.90;;;;;;4968363;29;20448;-46
2021/12/31 17:56:25;;;;;;;5.63;2.17;;;12.70;99.90;;;;;;4956087;29;20432;-51
2021/12/31 17:58:52;;;;;;;4.57;2.80;;;12.70;99.90;;;;;;4948991;29;20520;-45
2021/12/31 18:01:18;;;;;;;4.00;3.17;;;12.70;99.90;;;;;;4954121;29;20455;-45
2021/12/31 18:03:45;;;;;;;7.53;3.33;;;12.70;99.90;;;;;;4949103;29;20479;-46
2021/12/31 18:06:12;;;;;;;4.50;2.33;;;12.60;99.90;;;;;;4940039;29;20544;-44
2021/12/31 18:08:40;;;;;;;3.27;2.63;;;12.60;99.90;;;;;;4941333;29;20472;-46
2021/12/31 18:11:08;;;;;;;3.80;2.70;;;12.60;99.90;;;;;;4952482;29;20485;-45
2021/12/31 18:13:35;;;;;;;2.20;2.00;;;12.50;99.90;;;;;;4952724;29;20525;-43
2021/12/31 18:16:02;;;;;;;2.57;2.37;;;12.50;99.90;;;;;;4954179;29;20492;-48
2021/12/31 18:18:29;;;;;;;5.37;2.37;;;12.50;99.90;;;;;;4954204;29;20463;-44
2021/12/31 18:20:55;;;;;;;4.13;3.10;;;12.50;99.90;;;;;;4954019;29;20910;-45
2021/12/31 18:23:22;;;;;;;3.40;2.70;;;12.50;99.90;;;;;;4953960;29;20460;-43
2021/12/31 18:25:50;;;;;;;2.90;2.13;;;12.50;99.90;;;;;;4954647;29;20489;-43
2021/12/31 18:28:17;;;;;;;3.30;2.33;;;12.50;99.90;;;;;;4955801;29;20488;-48
2021/12/31 18:30:45;;;;;;;3.60;3.13;;;12.50;99.90;;;;;;4955199;29;20528;-47
2021/12/31 18:33:11;;;;;;;4.40;2.50;;;12.50;99.90;;;;;;4954527;29;20457;-48
2021/12/31 18:35:38;;;;;;;5.47;3.70;;;12.50;99.90;;;;;;4957715;29;20475;-50
2021/12/31 18:38:05;;;;;;;6.27;3.47;;;12.50;99.90;;;;;;4973510;28;20452;-50
2021/12/31 18:40:31;;;;;;;4.57;3.73;;;12.50;99.90;;;;;;4973496;29;20480;-46
2021/12/31 18:42:59;;;;;;;4.23;2.60;;;12.50;99.90;;;;;;4967513;29;20457;-43
2021/12/31 18:45:26;;;;;;;3.27;2.13;;;12.50;99.90;;;;;;4954108;29;20962;-44
2021/12/31 18:48:00;;;;;;;2.70;2.27;;;12.50;99.90;;;;;;4959926;29;20474;-46
2021/12/31 18:50:27;;;;;;;3.37;3.00;;;12.40;99.90;;;;;;4973689;29;20460;-50
2021/12/31 18:52:55;;;;;;;4.90;2.63;;;12.40;99.90;;;;;;4972969;29;20476;-43
2021/12/31 18:55:27;;;;;;;3.87;2.13;;;12.40;99.90;;;;;;4973145;28;20451;-44
2021/12/31 18:57:54;;;;;;;2.93;2.40;;;12.50;99.90;;;;;;4968111;29;20472;-46
2021/12/31 19:00:22;;;;;;;5.30;2.83;;;12.50;99.90;;;;;;4974593;29;20511;-46